Time;durP1;ratioP1;P1;durP2;ratioP2;P2;SDS_P1;SDS_P2;PMS_P1;PMS_P2;Temp;Humidity;BMP_temperature;BMP_pressure;BME280_temperature;BME280_humidity;BME280_pressure;Samples;Min_cycle;Max_cycle;Signal;HPM_P1;HPM_P2
2022/07/11 00:00:44;;;;;;;3.03;1.70;;;14.70;99.90;;;;;;5012857;28;20022;-72
2022/07/11 00:03:09;;;;;;;1.88;1.20;;;14.40;99.90;;;;;;5013794;28;20186;-72
2022/07/11 00:05:35;;;;;;;4.05;1.10;;;14.40;99.90;;;;;;5018209;28;20025;-72
2022/07/11 00:08:00;;;;;;;2.47;1.13;;;14.80;99.90;;;;;;5031734;28;20056;-72
2022/07/11 00:10:26;;;;;;;1.13;1.00;;;14.70;99.90;;;;;;5031159;28;20040;-72
2022/07/11 00:12:51;;;;;;;2.13;1.15;;;14.70;99.90;;;;;;5031754;28;20385;-72
2022/07/11 00:15:17;;;;;;;2.58;1.35;;;14.60;99.90;;;;;;5032904;28;20460;-72
2022/07/11 00:17:42;;;;;;;1.73;1.20;;;14.40;99.90;;;;;;5031694;28;20480;-72
2022/07/11 00:20:09;;;;;;;1.38;1.10;;;14.50;99.90;;;;;;5026749;28;20373;-72
2022/07/11 00:22:34;;;;;;;1.60;1.17;;;14.50;99.90;;;;;;5011269;28;20041;-72
2022/07/11 00:25:00;;;;;;;3.95;1.48;;;14.40;99.90;;;;;;5012874;28;20026;-72
2022/07/11 00:27:25;;;;;;;3.28;1.67;;;14.50;99.90;;;;;;5012992;28;20365;-73
2022/07/11 00:29:51;;;;;;;1.73;1.38;;;14.50;99.90;;;;;;5013042;28;20403;-72
2022/07/11 00:32:17;;;;;;;2.30;1.20;;;14.40;99.90;;;;;;5011453;28;20033;-73
2022/07/11 00:34:42;;;;;;;1.70;1.50;;;14.70;99.90;;;;;;5012777;28;20033;-72
2022/07/11 00:37:08;;;;;;;1.42;1.30;;;14.50;99.90;;;;;;5012774;28;20033;-72
2022/07/11 00:39:33;;;;;;;2.13;1.15;;;14.20;99.90;;;;;;5018674;28;20036;-72
2022/07/11 00:41:59;;;;;;;1.77;1.20;;;14.20;99.90;;;;;;5031915;28;20027;-72
2022/07/11 00:44:24;;;;;;;2.92;1.50;;;14.30;99.90;;;;;;5032399;28;20104;-72
2022/07/11 00:46:50;;;;;;;3.20;1.50;;;14.40;99.90;;;;;;5032173;28;20480;-72
2022/07/11 00:49:16;;;;;;;1.35;1.20;;;14.20;99.90;;;;;;5032428;28;20475;-72
2022/07/11 00:51:41;;;;;;;1.27;1.17;;;14.20;99.90;;;;;;5014419;28;20108;-72
2022/07/11 00:54:10;;;;;;;1.50;1.40;;;14.40;99.90;;;;;;5012386;28;20550;-72
2022/07/11 00:56:36;;;;;;;1.83;1.48;;;14.20;99.90;;;;;;5011129;28;20022;-72
2022/07/11 00:59:02;;;;;;;1.60;1.20;;;13.90;99.90;;;;;;5012406;28;20084;-72
2022/07/11 01:01:27;;;;;;;1.50;1.30;;;14.10;99.90;;;;;;5011841;28;20113;-72
2022/07/11 01:03:53;;;;;;;3.33;1.40;;;14.10;99.90;;;;;;5012267;28;20388;-72
2022/07/11 01:06:18;;;;;;;58.95;9.65;;;14.00;99.90;;;;;;5012430;28;20036;-72
2022/07/11 01:08:44;;;;;;;1.75;1.40;;;14.20;99.90;;;;;;5012165;28;20029;-72
2022/07/11 01:11:15;;;;;;;3.45;2.60;;;13.90;99.90;;;;;;5011669;28;20018;-72
2022/07/11 01:13:40;;;;;;;2.80;2.13;;;13.80;99.90;;;;;;5012187;28;20022;-72
2022/07/11 01:16:16;;;;;;;2.40;1.70;;;13.90;99.90;;;;;;5012279;28;20388;-72
2022/07/11 01:18:44;;;;;;;2.30;1.52;;;14.00;99.90;;;;;;5012229;28;20034;-72
2022/07/11 01:21:22;;;;;;;2.92;1.73;;;14.10;99.90;;;;;;5011305;28;20037;-72
2022/07/11 01:23:48;;;;;;;662.47;291.25;;;14.20;99.90;;;;;;5011037;28;20109;-72
2022/07/11 01:26:16;;;;;;;91.72;19.45;;;14.20;99.90;;;;;;5012035;28;20029;-72
2022/07/11 01:28:42;;;;;;;1.60;1.50;;;14.10;99.90;;;;;;5010862;28;20392;-72
2022/07/11 01:31:07;;;;;;;3.33;1.50;;;14.10;99.90;;;;;;5011290;28;20032;-72
2022/07/11 01:33:33;;;;;;;2.35;1.25;;;14.10;99.90;;;;;;5012383;28;20030;-72
2022/07/11 01:36:02;;;;;;;2.70;1.33;;;13.80;99.90;;;;;;5011779;28;20037;-73
2022/07/11 01:38:28;;;;;;;1.80;1.27;;;13.90;99.90;;;;;;5011935;28;20108;-72
2022/07/11 01:40:55;;;;;;;2.50;1.38;;;14.00;99.90;;;;;;5011187;28;20097;-72
2022/07/11 01:43:21;;;;;;;2.15;1.50;;;13.80;99.90;;;;;;5007291;28;20033;-72
2022/07/11 01:45:50;;;;;;;1.73;1.27;;;14.00;99.90;;;;;;5007149;28;20026;-72
2022/07/11 01:48:16;;;;;;;1.33;1.00;;;13.90;99.90;;;;;;5011590;28;20392;-72
2022/07/11 01:50:42;;;;;;;1.40;1.30;;;13.80;99.90;;;;;;5011041;28;20018;-72
2022/07/11 01:53:07;;;;;;;1.60;1.30;;;13.80;99.90;;;;;;5011761;28;20029;-72
2022/07/11 01:55:33;;;;;;;1.48;0.98;;;13.80;99.90;;;;;;5011714;28;20026;-72
2022/07/11 01:57:58;;;;;;;2.38;1.20;;;14.10;99.90;;;;;;5011852;28;20197;-72
2022/07/11 02:00:24;;;;;;;1.23;1.13;;;14.00;99.90;;;;;;5009590;28;20080;-72
2022/07/11 02:02:50;;;;;;;1.38;1.20;;;13.80;99.90;;;;;;5011529;28;20033;-72
2022/07/11 02:05:15;;;;;;;2.45;1.20;;;14.10;99.90;;;;;;5011623;28;20030;-72
2022/07/11 02:10:29;;;;;;;1.85;1.38;;;14.00;99.90;;;;;;5010977;28;20542;-72
2022/07/11 02:12:57;;;;;;;1.30;1.20;;;13.80;99.90;;;;;;5011523;28;20481;-72
2022/07/11 02:15:23;;;;;;;1.30;1.20;;;13.80;99.90;;;;;;5011332;28;20092;-72
2022/07/11 02:17:48;;;;;;;2.65;1.27;;;13.80;99.90;;;;;;5011486;28;20476;-72
2022/07/11 02:20:14;;;;;;;2.60;1.40;;;13.80;99.90;;;;;;5011026;28;20060;-72
2022/07/11 02:22:39;;;;;;;2.85;1.08;;;13.80;99.90;;;;;;5011360;28;20026;-72
2022/07/11 02:25:05;;;;;;;1.40;1.15;;;13.70;99.90;;;;;;5011263;28;20041;-72
2022/07/11 02:27:31;;;;;;;1.65;1.23;;;13.80;99.90;;;;;;5011461;28;20030;-72
2022/07/11 02:29:57;;;;;;;2.30;1.40;;;13.90;99.90;;;;;;5017377;28;20482;-72
2022/07/11 02:32:22;;;;;;;1.25;1.10;;;13.90;99.90;;;;;;5030493;28;20075;-72
2022/07/11 02:34:48;;;;;;;2.33;1.40;;;13.70;99.90;;;;;;5030945;28;20025;-72
2022/07/11 02:37:13;;;;;;;1.55;1.42;;;13.70;99.90;;;;;;5018880;28;20060;-72
2022/07/11 02:39:39;;;;;;;2.30;1.50;;;13.60;99.90;;;;;;5011285;28;20484;-72
2022/07/11 02:42:05;;;;;;;2.70;1.70;;;13.70;99.90;;;;;;5010795;28;20400;-72
2022/07/11 02:44:31;;;;;;;3.25;1.83;;;13.40;99.90;;;;;;5011106;28;20025;-72
2022/07/11 02:46:56;;;;;;;1.90;1.60;;;13.30;99.90;;;;;;5011084;28;20392;-72
2022/07/11 02:49:23;;;;;;;3.45;1.90;;;13.50;99.90;;;;;;5011283;28;20033;-72
2022/07/11 02:51:49;;;;;;;2.92;1.90;;;13.40;99.90;;;;;;5015012;28;20018;-72
2022/07/11 02:54:14;;;;;;;2.63;1.85;;;13.50;99.90;;;;;;5011574;28;20022;-72
2022/07/11 02:56:40;;;;;;;2.40;2.00;;;13.60;99.90;;;;;;5014768;28;20065;-72
2022/07/11 02:59:05;;;;;;;3.95;2.20;;;13.40;99.90;;;;;;5020441;28;20021;-72
2022/07/11 03:01:31;;;;;;;3.38;1.92;;;13.50;99.90;;;;;;5032526;28;20029;-72
2022/07/11 03:03:56;;;;;;;2.15;1.80;;;13.30;99.90;;;;;;5034989;28;20056;-72
2022/07/11 03:06:22;;;;;;;1.70;1.60;;;13.40;99.90;;;;;;5034396;28;20475;-72
2022/07/11 03:08:48;;;;;;;3.13;2.22;;;13.70;99.90;;;;;;5034255;28;20035;-72
2022/07/11 03:11:14;;;;;;;2.20;2.00;;;13.80;99.90;;;;;;5033645;28;20056;-73
2022/07/11 03:13:39;;;;;;;3.55;2.45;;;13.70;99.90;;;;;;5034001;28;20049;-72
2022/07/11 03:16:05;;;;;;;2.67;2.42;;;13.40;99.90;;;;;;5034263;28;20029;-72
2022/07/11 03:18:31;;;;;;;4.53;2.25;;;13.40;99.90;;;;;;5034104;28;20025;-72
2022/07/11 03:20:56;;;;;;;2.65;1.98;;;13.60;99.90;;;;;;5033385;28;20030;-72
2022/07/11 03:23:22;;;;;;;3.05;2.55;;;13.60;99.90;;;;;;5034050;28;20508;-72
2022/07/11 03:25:47;;;;;;;3.60;2.85;;;13.60;99.90;;;;;;5034009;28;20021;-72
2022/07/11 03:28:13;;;;;;;3.92;2.58;;;13.60;99.90;;;;;;5033644;28;20437;-72
2022/07/11 03:30:38;;;;;;;3.10;2.75;;;13.50;99.90;;;;;;5033351;28;20464;-72
2022/07/11 03:33:04;;;;;;;2.85;2.55;;;13.50;99.90;;;;;;5032505;28;20443;-72
2022/07/11 03:35:41;;;;;;;3.80;2.80;;;13.40;99.90;;;;;;5033787;28;20104;-72
2022/07/11 03:38:08;;;;;;;2.97;2.75;;;13.60;99.90;;;;;;5033770;28;20026;-72
2022/07/11 03:40:34;;;;;;;4.22;3.10;;;13.40;99.90;;;;;;5033115;28;20040;-72
2022/07/11 03:43:00;;;;;;;4.15;3.10;;;13.40;99.90;;;;;;5033572;28;20030;-72
2022/07/11 03:45:25;;;;;;;4.13;3.08;;;13.30;99.90;;;;;;5033784;28;20033;-73
2022/07/11 03:47:51;;;;;;;6.22;3.50;;;13.30;99.90;;;;;;5033256;28;20029;-72
2022/07/11 03:50:17;;;;;;;3.92;2.60;;;13.30;99.90;;;;;;5027190;28;20022;-72
2022/07/11 03:52:43;;;;;;;3.30;2.95;;;13.30;99.90;;;;;;5014047;28;20029;-72
2022/07/11 03:55:09;;;;;;;4.53;2.97;;;13.30;99.90;;;;;;5013364;28;20496;-72
2022/07/11 03:57:36;;;;;;;3.95;3.35;;;13.40;99.90;;;;;;5009002;28;20036;-72
2022/07/11 04:00:06;;;;;;;3.53;3.22;;;13.40;99.90;;;;;;5007315;28;20030;-72
2022/07/11 04:02:32;;;;;;;3.38;3.05;;;13.20;99.90;;;;;;5008524;28;20080;-72
2022/07/11 04:04:58;;;;;;;2.38;2.17;;;13.30;99.90;;;;;;5006512;28;20049;-72
2022/07/11 04:07:23;;;;;;;2.70;2.38;;;13.50;99.90;;;;;;5012087;28;20400;-72
2022/07/11 04:09:49;;;;;;;5.07;2.42;;;13.40;99.90;;;;;;5009651;28;20508;-72
2022/07/11 04:12:17;;;;;;;3.30;2.55;;;13.40;99.90;;;;;;5012674;28;20030;-72
2022/07/11 04:14:43;;;;;;;3.92;2.83;;;13.70;99.90;;;;;;5013179;28;20022;-72
2022/07/11 04:17:09;;;;;;;2.33;2.13;;;13.70;99.90;;;;;;5011984;28;20095;-72
2022/07/11 04:19:34;;;;;;;3.67;2.78;;;13.80;99.90;;;;;;5013271;28;20025;-72
2022/07/11 04:22:00;;;;;;;3.65;1.92;;;13.90;99.90;;;;;;5012457;28;20567;-72
2022/07/11 04:24:26;;;;;;;2.22;1.65;;;14.00;99.90;;;;;;5012922;28;20026;-72
2022/07/11 04:26:51;;;;;;;2.90;1.95;;;14.10;99.90;;;;;;5008431;28;20174;-72
2022/07/11 04:29:17;;;;;;;1.88;1.70;;;14.20;99.90;;;;;;5022358;28;20065;-72
2022/07/11 04:31:42;;;;;;;3.05;1.90;;;14.20;99.90;;;;;;5012496;28;20025;-72
2022/07/11 04:34:08;;;;;;;2.33;1.98;;;14.10;99.90;;;;;;5012796;28;20119;-72
2022/07/11 04:36:33;;;;;;;2.88;1.98;;;14.00;99.90;;;;;;5013028;28;20034;-72
2022/07/11 04:38:59;;;;;;;2.42;2.08;;;14.00;99.90;;;;;;5012717;28;20502;-72
2022/07/11 04:41:25;;;;;;;3.00;1.90;;;14.10;99.90;;;;;;5012258;28;20117;-72
2022/07/11 04:43:50;;;;;;;2.95;2.20;;;13.70;99.90;;;;;;5025968;28;20037;-72
2022/07/11 04:46:16;;;;;;;2.83;2.35;;;13.60;99.90;;;;;;5031541;28;20136;-72
2022/07/11 04:48:41;;;;;;;2.90;2.40;;;14.00;99.90;;;;;;5031017;28;20034;-72
2022/07/11 04:51:07;;;;;;;2.88;2.20;;;14.40;99.90;;;;;;5017943;28;20025;-72
2022/07/11 04:53:33;;;;;;;3.38;1.83;;;14.50;99.90;;;;;;5012171;28;20053;-71
2022/07/11 04:55:59;;;;;;;3.30;2.10;;;14.60;99.90;;;;;;5012450;28;20028;-72
2022/07/11 04:58:25;;;;;;;2.90;2.10;;;14.60;99.90;;;;;;5012452;28;20101;-72
2022/07/11 05:00:51;;;;;;;4.07;2.33;;;14.50;99.90;;;;;;5011905;28;20034;-72
2022/07/11 05:03:16;;;;;;;3.22;1.80;;;14.30;99.90;;;;;;5012329;28;20026;-72
2022/07/11 05:05:42;;;;;;;2.05;1.67;;;14.20;99.90;;;;;;5012467;28;20026;-72
2022/07/11 05:08:08;;;;;;;2.45;2.00;;;14.20;99.90;;;;;;5012208;28;20108;-72
2022/07/11 05:10:36;;;;;;;3.17;2.03;;;14.30;99.90;;;;;;5010433;28;20037;-72
2022/07/11 05:13:02;;;;;;;2.28;1.88;;;14.20;99.90;;;;;;5012285;28;20057;-72
2022/07/11 05:15:27;;;;;;;2.42;1.55;;;14.10;99.90;;;;;;5011169;28;20030;-72
2022/07/11 05:17:53;;;;;;;2.38;1.50;;;14.30;99.90;;;;;;5011775;28;20503;-72
2022/07/11 05:20:19;;;;;;;2.38;1.70;;;14.10;99.90;;;;;;5011627;28;20397;-72
2022/07/11 05:22:44;;;;;;;1.48;1.27;;;14.20;99.90;;;;;;5012130;28;20026;-72
2022/07/11 05:25:10;;;;;;;1.88;1.60;;;14.10;99.90;;;;;;5012245;28;20037;-73
2022/07/11 05:27:36;;;;;;;2.67;1.48;;;14.20;99.90;;;;;;5025533;28;20036;-72
2022/07/11 05:30:01;;;;;;;2.67;1.80;;;14.30;99.90;;;;;;5031817;28;20025;-72
2022/07/11 05:32:27;;;;;;;3.35;2.00;;;14.30;99.90;;;;;;5031206;28;20543;-72
2022/07/11 05:34:54;;;;;;;2.42;1.67;;;14.50;99.90;;;;;;5031598;28;20476;-72
2022/07/11 05:37:19;;;;;;;2.42;1.65;;;14.60;99.90;;;;;;5031553;28;20032;-72
2022/07/11 05:39:45;;;;;;;2.40;1.85;;;14.70;99.90;;;;;;5016271;28;20034;-73
2022/07/11 05:42:11;;;;;;;1.88;1.60;;;14.70;99.90;;;;;;5004448;28;20029;-73
2022/07/11 05:44:37;;;;;;;1.50;1.40;;;14.60;99.90;;;;;;5010676;28;20120;-73
2022/07/11 05:47:03;;;;;;;2.40;1.90;;;15.00;99.90;;;;;;5010947;28;20463;-73
2022/07/11 05:49:31;;;;;;;2.40;1.65;;;15.10;99.90;;;;;;4998736;28;20465;-73
2022/07/11 05:51:56;;;;;;;2.63;1.58;;;14.80;99.90;;;;;;5011331;28;20489;-73
2022/07/11 05:54:22;;;;;;;3.22;1.58;;;14.80;99.90;;;;;;5012320;28;20018;-73
2022/07/11 05:56:47;;;;;;;2.00;1.80;;;14.80;99.90;;;;;;5019153;28;20096;-73
2022/07/11 05:59:14;;;;;;;3.65;1.95;;;14.90;99.90;;;;;;5011910;28;20096;-73
2022/07/11 06:01:40;;;;;;;2.20;2.00;;;14.80;99.90;;;;;;5009723;28;20026;-73
2022/07/11 06:04:05;;;;;;;2.10;1.40;;;14.80;99.90;;;;;;5011697;28;20061;-72
2022/07/11 06:06:31;;;;;;;1.50;1.40;;;14.90;99.90;;;;;;5010326;28;20036;-72
2022/07/11 06:08:57;;;;;;;1.65;1.55;;;15.00;99.90;;;;;;5011699;28;20064;-73
2022/07/11 06:11:23;;;;;;;3.60;1.83;;;15.00;99.90;;;;;;5024706;28;20030;-73
2022/07/11 06:13:49;;;;;;;1.70;1.40;;;14.70;99.90;;;;;;5031399;28;20036;-73
2022/07/11 06:16:16;;;;;;;3.25;1.70;;;15.10;99.90;;;;;;5029987;28;20029;-72
2022/07/11 06:18:42;;;;;;;2.30;1.90;;;15.10;99.90;;;;;;5031328;28;20045;-73
2022/07/11 06:21:07;;;;;;;1.90;1.80;;;14.90;99.90;;;;;;5030482;28;20103;-73
2022/07/11 06:23:37;;;;;;;2.55;1.52;;;14.80;99.90;;;;;;5031269;28;20467;-73
2022/07/11 06:26:03;;;;;;;3.08;1.88;;;15.10;99.90;;;;;;5031231;28;20034;-72
2022/07/11 06:28:29;;;;;;;3.15;2.10;;;15.20;99.90;;;;;;5031219;28;20505;-73
2022/07/11 06:30:55;;;;;;;3.35;1.85;;;15.10;99.90;;;;;;5033246;28;20515;-73
2022/07/11 06:33:21;;;;;;;1.63;1.52;;;15.30;99.90;;;;;;5027433;28;20120;-73
2022/07/11 06:35:48;;;;;;;2.85;1.70;;;15.80;99.90;;;;;;5015091;28;20115;-73
2022/07/11 06:38:15;;;;;;;2.35;1.60;;;15.60;99.90;;;;;;5013898;28;20034;-73
2022/07/11 06:40:42;;;;;;;2.05;1.80;;;15.40;99.90;;;;;;5014431;28;20028;-73
2022/07/11 06:43:11;;;;;;;2.55;1.90;;;15.20;99.90;;;;;;5015082;28;20033;-73
2022/07/11 06:45:37;;;;;;;1.67;1.58;;;15.30;99.90;;;;;;5029930;28;20123;-73
2022/07/11 06:48:04;;;;;;;2.03;1.67;;;15.20;99.90;;;;;;5034587;28;20029;-73
2022/07/11 06:50:30;;;;;;;3.80;1.65;;;15.40;99.90;;;;;;5026506;28;20503;-73
2022/07/11 06:52:56;;;;;;;1.50;1.40;;;15.20;99.90;;;;;;5013574;28;20022;-73
2022/07/11 06:55:21;;;;;;;2.40;1.60;;;15.30;99.90;;;;;;5014773;28;20022;-73
2022/07/11 06:57:47;;;;;;;2.17;1.35;;;15.40;99.90;;;;;;5014847;28;20439;-73
2022/07/11 07:00:12;;;;;;;1.85;1.40;;;15.30;99.90;;;;;;5014385;28;20034;-73
2022/07/11 07:02:38;;;;;;;1.85;1.23;;;15.40;99.90;;;;;;5014491;28;20030;-73
2022/07/11 07:05:05;;;;;;;1.40;1.10;;;15.60;99.90;;;;;;5014520;28;20037;-73
2022/07/11 07:07:31;;;;;;;3.30;1.50;;;15.40;99.90;;;;;;5014625;28;20029;-74
2022/07/11 07:09:57;;;;;;;1.70;1.10;;;15.30;99.90;;;;;;5014685;28;20026;-73
2022/07/11 07:12:23;;;;;;;2.25;1.10;;;15.60;99.90;;;;;;5013863;28;20033;-73
2022/07/11 07:14:49;;;;;;;2.55;1.23;;;15.50;99.90;;;;;;5014289;28;20064;-73
2022/07/11 07:17:15;;;;;;;2.45;1.17;;;15.40;99.90;;;;;;5014347;28;20046;-73
2022/07/11 07:19:40;;;;;;;1.83;1.02;;;15.30;99.90;;;;;;5014279;28;20065;-73
2022/07/11 07:22:06;;;;;;;1.65;1.10;;;15.20;99.90;;;;;;5013777;28;20022;-73
2022/07/11 07:24:32;;;;;;;1.35;1.25;;;15.50;99.90;;;;;;5014222;28;20018;-73
2022/07/11 07:26:58;;;;;;;2.63;1.55;;;15.80;99.90;;;;;;5014078;28;20117;-73
2022/07/11 07:29:26;;;;;;;4.63;1.30;;;15.50;99.90;;;;;;5014199;28;20018;-73
2022/07/11 07:31:52;;;;;;;2.72;1.17;;;15.40;99.90;;;;;;5013437;28;20018;-73
2022/07/11 07:34:19;;;;;;;3.22;1.60;;;15.40;99.90;;;;;;5013969;28;20049;-73
2022/07/11 07:36:44;;;;;;;1.45;1.35;;;15.70;99.90;;;;;;5014151;28;20026;-73
2022/07/11 07:39:11;;;;;;;2.08;1.20;;;15.70;99.90;;;;;;5014271;28;20033;-73
2022/07/11 07:41:36;;;;;;;0.82;0.82;;;15.70;99.90;;;;;;5013011;28;20476;-73
2022/07/11 07:44:02;;;;;;;1.60;1.00;;;15.60;99.90;;;;;;5013827;28;20087;-73
2022/07/11 07:46:28;;;;;;;1.65;0.90;;;16.10;99.90;;;;;;5013696;28;20394;-73
2022/07/11 07:48:54;;;;;;;1.20;1.10;;;16.30;99.90;;;;;;5013739;28;20037;-73
2022/07/11 07:51:21;;;;;;;0.90;0.90;;;16.10;99.90;;;;;;5018531;28;20072;-73
2022/07/11 07:53:47;;;;;;;2.60;1.02;;;16.00;99.90;;;;;;5013628;28;20029;-73
2022/07/11 07:56:12;;;;;;;1.55;1.02;;;16.00;99.90;;;;;;5013761;28;20479;-73
2022/07/11 07:58:38;;;;;;;2.72;1.05;;;16.10;99.90;;;;;;5013525;28;20061;-73
2022/07/11 08:03:48;;;;;;;2.17;0.93;;;15.70;99.90;;;;;;5013538;28;20041;-73
2022/07/11 08:06:14;;;;;;;0.85;0.60;;;15.60;99.90;;;;;;5013610;28;20034;-73
2022/07/11 08:08:40;;;;;;;1.00;0.90;;;15.80;99.90;;;;;;5013410;28;20033;-73
2022/07/11 08:11:05;;;;;;;1.75;0.85;;;15.90;99.90;;;;;;5012737;28;20481;-73
2022/07/11 08:13:31;;;;;;;1.35;1.00;;;15.80;99.90;;;;;;5013231;28;20060;-73
2022/07/11 08:15:56;;;;;;;1.63;0.80;;;15.50;99.90;;;;;;5013446;28;20083;-73
2022/07/11 08:18:22;;;;;;;1.13;0.90;;;15.70;99.90;;;;;;5013203;28;20034;-73
2022/07/11 08:20:48;;;;;;;0.88;0.75;;;16.00;99.90;;;;;;5008054;28;20049;-73
2022/07/11 08:23:13;;;;;;;3.67;1.00;;;16.20;99.90;;;;;;5011008;28;20148;-73
2022/07/11 08:25:40;;;;;;;1.13;0.80;;;16.00;99.90;;;;;;5008616;28;20034;-73
2022/07/11 08:28:06;;;;;;;1.00;1.00;;;15.90;99.90;;;;;;5010748;28;20033;-72
2022/07/11 08:30:32;;;;;;;1.02;0.60;;;15.80;99.90;;;;;;5012528;28;20507;-73
2022/07/11 08:32:58;;;;;;;1.23;0.70;;;16.00;99.90;;;;;;5013084;28;20182;-73
2022/07/11 08:35:23;;;;;;;1.17;0.82;;;15.40;99.90;;;;;;5013024;28;20018;-73
2022/07/11 08:37:49;;;;;;;1.23;0.80;;;15.30;99.90;;;;;;5012835;28;20084;-73
2022/07/11 08:40:15;;;;;;;1.60;0.80;;;15.00;99.90;;;;;;5011151;28;20084;-72
2022/07/11 08:42:42;;;;;;;1.45;0.77;;;15.00;99.90;;;;;;5012633;28;20030;-73
2022/07/11 08:45:11;;;;;;;2.05;0.90;;;14.90;99.90;;;;;;5008290;28;20026;-73
2022/07/11 08:47:37;;;;;;;2.53;0.75;;;15.00;99.90;;;;;;5010854;28;20030;-73
2022/07/11 08:50:04;;;;;;;1.02;0.90;;;15.10;99.90;;;;;;5012981;28;20032;-73
2022/07/11 08:52:31;;;;;;;1.80;0.82;;;15.00;99.90;;;;;;5011630;28;20017;-72
2022/07/11 08:54:56;;;;;;;1.27;0.90;;;15.20;99.90;;;;;;5012728;28;20050;-73
2022/07/11 08:57:22;;;;;;;2.45;0.77;;;15.20;99.90;;;;;;5012476;28;20068;-72
2022/07/11 08:59:51;;;;;;;2.65;0.90;;;15.20;99.90;;;;;;5013302;28;20491;-73
2022/07/11 09:02:18;;;;;;;1.05;0.90;;;15.20;99.90;;;;;;5012391;28;20026;-73
2022/07/11 09:04:43;;;;;;;1.45;1.13;;;15.20;99.90;;;;;;5012862;28;20345;-72
2022/07/11 09:07:09;;;;;;;1.15;1.05;;;15.60;99.90;;;;;;5012393;28;20381;-72
2022/07/11 09:09:34;;;;;;;1.30;0.85;;;15.80;99.90;;;;;;5012427;28;20483;-72
2022/07/11 09:12:00;;;;;;;1.15;0.90;;;16.10;99.90;;;;;;5011552;28;20395;-72
2022/07/11 09:14:26;;;;;;;2.65;1.02;;;16.00;99.90;;;;;;5012405;28;20034;-72
2022/07/11 09:16:54;;;;;;;0.82;0.80;;;15.70;99.90;;;;;;5016162;28;20018;-72
2022/07/11 09:19:30;;;;;;;0.70;0.70;;;15.50;99.90;;;;;;5031946;28;20547;-72
2022/07/11 09:25:31;;;;;;;1.73;0.80;;;15.80;99.90;;;;;;5032199;28;20159;-72
2022/07/11 09:28:04;;;;;;;0.80;0.80;;;16.20;99.90;;;;;;5031825;28;20022;-72
2022/07/11 09:30:43;;;;;;;0.75;0.75;;;16.00;99.90;;;;;;5031090;28;20018;-72
2022/07/11 09:33:12;;;;;;;0.90;0.70;;;16.60;99.90;;;;;;5031627;28;20030;-72
2022/07/11 09:35:40;;;;;;;1.30;1.10;;;16.40;99.90;;;;;;5030375;28;20048;-72
2022/07/11 09:38:10;;;;;;;0.77;0.73;;;16.20;99.90;;;;;;5032031;28;20021;-72
2022/07/11 09:40:37;;;;;;;1.00;0.80;;;16.30;99.90;;;;;;5031013;28;20514;-72
2022/07/11 09:43:04;;;;;;;0.70;0.70;;;16.20;99.90;;;;;;5031598;28;20032;-72
2022/07/11 09:45:31;;;;;;;2.97;0.93;;;16.00;99.90;;;;;;5031529;28;20475;-72
2022/07/11 09:48:00;;;;;;;1.17;0.80;;;16.30;99.90;;;;;;5031553;28;20033;-72
2022/07/11 09:50:29;;;;;;;1.75;0.70;;;16.30;99.90;;;;;;5023963;28;20030;-72
2022/07/11 09:53:11;;;;;;;2.00;0.70;;;16.40;99.90;;;;;;5011546;28;20509;-72
2022/07/11 09:55:42;;;;;;;0.93;0.75;;;16.30;99.90;;;;;;5011536;28;20365;-72
2022/07/11 09:58:09;;;;;;;0.75;0.70;;;16.70;99.90;;;;;;5011825;28;20018;-72
2022/07/11 10:00:37;;;;;;;1.67;0.95;;;16.80;99.90;;;;;;5010987;28;20033;-72
2022/07/11 10:03:03;;;;;;;0.63;0.60;;;17.00;99.90;;;;;;5011728;28;20034;-72
2022/07/11 10:05:30;;;;;;;2.08;0.70;;;17.10;99.90;;;;;;5015399;28;20037;-72
2022/07/11 10:07:57;;;;;;;1.13;0.65;;;17.40;99.90;;;;;;5015747;28;20026;-72
2022/07/11 10:10:24;;;;;;;0.63;0.50;;;17.60;99.90;;;;;;5014912;28;20026;-72
2022/07/11 10:12:51;;;;;;;1.50;0.80;;;17.40;99.90;;;;;;5015431;28;20100;-72
2022/07/11 10:15:22;;;;;;;0.65;0.60;;;17.60;99.90;;;;;;5015550;28;20031;-72
2022/07/11 10:18:02;;;;;;;1.02;0.70;;;18.10;99.90;;;;;;5015514;28;20057;-72
2022/07/11 10:20:39;;;;;;;1.40;0.70;;;18.30;99.90;;;;;;5014928;28;20521;-72
2022/07/11 10:23:23;;;;;;;1.17;0.70;;;18.20;99.90;;;;;;5015428;28;20109;-73
2022/07/11 10:25:57;;;;;;;0.82;0.63;;;18.00;99.90;;;;;;5015355;28;20052;-72
2022/07/11 10:28:26;;;;;;;1.02;0.88;;;17.70;99.90;;;;;;5015297;28;20030;-72
2022/07/11 10:30:55;;;;;;;0.75;0.50;;;17.30;99.90;;;;;;5014891;28;20503;-72
2022/07/11 10:33:21;;;;;;;1.00;0.88;;;17.60;99.90;;;;;;5035058;28;20033;-73
2022/07/11 10:35:56;;;;;;;1.52;0.50;;;17.80;99.90;;;;;;5034845;28;20114;-72
2022/07/11 10:38:23;;;;;;;0.95;0.50;;;18.10;99.90;;;;;;5033701;28;20179;-73
2022/07/11 10:40:53;;;;;;;1.27;0.50;;;17.80;99.90;;;;;;5034152;28;20030;-72
2022/07/11 10:43:22;;;;;;;0.50;0.50;;;17.80;99.90;;;;;;5034690;28;20026;-74
2022/07/11 10:45:56;;;;;;;0.52;0.50;;;17.90;99.90;;;;;;5034642;28;20112;-73
2022/07/11 10:48:23;;;;;;;0.88;0.52;;;17.80;99.90;;;;;;5034718;28;20052;-73
2022/07/11 10:50:59;;;;;;;0.63;0.60;;;17.90;99.90;;;;;;5024123;28;20022;-73
2022/07/11 10:53:26;;;;;;;;;;;18.00;99.90;;;;;;5015424;28;20067;-73
2022/07/11 10:56:20;;;;;;;0.77;0.50;;;18.40;99.90;;;;;;5014934;28;20290;-73
2022/07/11 10:59:08;;;;;;;1.70;0.68;;;18.70;99.90;;;;;;5011102;28;20037;-74
2022/07/11 11:01:34;;;;;;;0.68;0.60;;;18.80;99.90;;;;;;5014164;28;20033;-73
2022/07/11 11:04:37;;;;;;;0.60;0.60;;;18.50;99.90;;;;;;5014808;28;20397;-73
2022/07/11 11:07:03;;;;;;;1.20;0.52;;;19.20;99.90;;;;;;5014728;28;20030;-73
2022/07/11 11:09:38;;;;;;;0.68;0.60;;;19.80;99.90;;;;;;5013329;28;20114;-73
2022/07/11 11:12:04;;;;;;;1.30;0.60;;;19.60;99.90;;;;;;5013983;28;20052;-73
2022/07/11 11:14:30;;;;;;;0.50;0.50;;;19.10;99.90;;;;;;5014487;28;20157;-73
2022/07/11 11:17:35;;;;;;;0.60;0.60;;;19.80;99.90;;;;;;5000517;28;20369;-73
2022/07/11 11:20:02;;;;;;;1.17;0.40;;;19.90;99.90;;;;;;5013195;28;20025;-73
2022/07/11 11:22:28;;;;;;;1.23;0.60;;;19.80;99.90;;;;;;5009390;28;20022;-73
2022/07/11 11:24:55;;;;;;;0.82;0.52;;;20.30;99.90;;;;;;5012116;28;20045;-73
2022/07/11 11:27:23;;;;;;;0.85;0.60;;;20.30;99.90;;;;;;5014070;28;20049;-73
2022/07/11 11:29:55;;;;;;;0.60;0.60;;;20.50;99.90;;;;;;5014159;28;20033;-73
2022/07/11 11:32:27;;;;;;;1.75;1.10;;;20.30;99.90;;;;;;5009435;28;20164;-73
2022/07/11 11:34:53;;;;;;;2.50;1.20;;;20.10;99.90;;;;;;5012101;28;20408;-73
2022/07/11 11:37:20;;;;;;;1.40;0.90;;;20.80;99.90;;;;;;5010286;28;20026;-73
2022/07/11 11:39:46;;;;;;;1.33;0.80;;;20.60;99.90;;;;;;5011509;28;20535;-73
2022/07/11 11:42:16;;;;;;;0.75;0.65;;;20.90;99.90;;;;;;5013176;28;20049;-73
2022/07/11 11:45:01;;;;;;;0.82;0.55;;;20.90;99.90;;;;;;5013195;28;20032;-73
2022/07/11 11:47:30;;;;;;;0.60;0.50;;;20.20;99.90;;;;;;5013755;28;20030;-73
2022/07/11 11:49:56;;;;;;;1.40;0.50;;;19.80;99.90;;;;;;5013781;28;20034;-73
2022/07/11 11:52:24;;;;;;;0.63;0.50;;;19.90;99.90;;;;;;5013320;28;20026;-73
2022/07/11 11:54:55;;;;;;;0.70;0.65;;;19.70;99.90;;;;;;5013861;28;20490;-73
2022/07/11 11:57:22;;;;;;;0.75;0.60;;;19.90;99.90;;;;;;5013788;28;20045;-73
2022/07/11 11:59:50;;;;;;;1.05;0.70;;;19.70;99.90;;;;;;5013649;28;20239;-73
2022/07/11 12:02:22;;;;;;;0.60;0.50;;;19.80;99.90;;;;;;5012974;28;20029;-73
2022/07/11 12:04:47;;;;;;;0.40;0.40;;;19.80;99.90;;;;;;5013496;28;20072;-73
2022/07/11 12:07:13;;;;;;;1.75;0.40;;;19.70;99.90;;;;;;5013489;28;20388;-73
2022/07/11 12:09:54;;;;;;;3.50;0.40;;;19.70;99.90;;;;;;5013897;28;20018;-73
2022/07/11 12:15:26;;;;;;;1.35;0.45;;;20.40;99.90;;;;;;5013190;28;20067;-73
2022/07/11 12:17:56;;;;;;;2.42;0.50;;;20.60;99.90;;;;;;5013383;28;20484;-73
2022/07/11 12:20:39;;;;;;;0.60;0.60;;;20.50;99.90;;;;;;5012756;28;20506;-73
2022/07/11 12:23:10;;;;;;;1.10;0.50;;;20.20;99.90;;;;;;5013293;28;20021;-73
2022/07/11 12:25:37;;;;;;;0.47;0.45;;;20.80;99.90;;;;;;5013210;28;20026;-73
2022/07/11 12:28:03;;;;;;;0.50;0.45;;;21.00;99.90;;;;;;5007468;28;20052;-73
2022/07/11 12:30:29;;;;;;;0.47;0.47;;;21.30;99.90;;;;;;5003079;28;20026;-73
2022/07/11 12:33:05;;;;;;;0.40;0.40;;;20.20;99.90;;;;;;5012981;28;20033;-73
2022/07/11 12:35:31;;;;;;;0.55;0.40;;;20.20;99.90;;;;;;5012901;28;20412;-73
2022/07/11 12:37:56;;;;;;;1.40;0.50;;;20.30;99.90;;;;;;5011709;28;20028;-73
2022/07/11 12:40:22;;;;;;;0.93;0.70;;;20.40;99.90;;;;;;5012210;28;20034;-73
2022/07/11 12:42:48;;;;;;;0.43;0.40;;;20.10;99.90;;;;;;5013170;28;20040;-73
2022/07/11 12:45:15;;;;;;;1.25;0.47;;;20.10;99.90;;;;;;5012864;28;20026;-73
2022/07/11 12:47:42;;;;;;;0.50;0.38;;;19.80;99.90;;;;;;5008009;28;20030;-73
2022/07/11 12:50:18;;;;;;;0.60;0.47;;;20.10;99.90;;;;;;5020052;28;20018;-73
2022/07/11 12:52:47;;;;;;;1.45;0.40;;;20.20;99.90;;;;;;5012671;28;20048;-73
2022/07/11 12:55:27;;;;;;;0.40;0.40;;;20.20;99.90;;;;;;5012568;28;20113;-73
2022/07/11 12:58:08;;;;;;;0.45;0.40;;;20.00;99.90;;;;;;5012639;28;20480;-73
2022/07/11 13:00:37;;;;;;;0.30;0.30;;;20.50;99.90;;;;;;5011931;28;20034;-73